createdAt,value
2022-12-18T00:01:28.029Z,26.60
2022-12-18T00:03:56.925Z,36.72
2022-12-18T00:06:25.911Z,41.15
2022-12-18T00:08:53.333Z,36.55
2022-12-18T00:11:22.740Z,36.58
2022-12-18T00:13:50.176Z,37.85
2022-12-18T00:16:21.813Z,37.00
2022-12-18T00:18:50.908Z,40.60
2022-12-18T00:21:19.338Z,43.70
2022-12-18T00:23:47.862Z,40.35
2022-12-18T00:26:18.385Z,45.83
2022-12-18T00:28:46.630Z,30.05
2022-12-18T00:31:16.851Z,47.75
2022-12-18T00:33:44.479Z,37.97
2022-12-18T00:36:20.067Z,41.90
2022-12-18T00:38:48.435Z,42.30
2022-12-18T00:41:37.965Z,43.15
2022-12-18T00:44:06.722Z,36.35
2022-12-18T00:46:34.635Z,40.78
2022-12-18T00:49:01.703Z,34.35
2022-12-18T00:51:29.754Z,38.40
2022-12-18T00:53:57.094Z,36.00
2022-12-18T00:56:24.809Z,45.80
2022-12-18T00:58:53.152Z,48.92
2022-12-18T01:01:20.846Z,29.40
2022-12-18T01:03:48.058Z,42.58
2022-12-18T01:06:17.688Z,47.95
2022-12-18T01:08:44.967Z,41.67
2022-12-18T01:11:19.085Z,41.88
2022-12-18T01:13:46.897Z,38.60
2022-12-18T01:16:16.196Z,38.92
2022-12-18T01:18:43.422Z,49.20
2022-12-18T01:21:14.213Z,35.15
2022-12-18T01:23:42.087Z,34.83
2022-12-18T01:26:15.867Z,29.33
2022-12-18T01:28:44.773Z,40.60
2022-12-18T01:31:13.189Z,30.33
2022-12-18T01:33:41.126Z,35.28
2022-12-18T01:36:08.905Z,34.10
2022-12-18T01:38:35.990Z,30.10
2022-12-18T01:41:03.820Z,33.47
2022-12-18T01:43:51.072Z,42.92
2022-12-18T01:46:21.120Z,32.45
2022-12-18T01:48:51.738Z,43.97
2022-12-18T01:51:19.415Z,44.35
2022-12-18T01:53:49.486Z,38.28
2022-12-18T01:56:18.855Z,40.85
2022-12-18T01:59:05.673Z,40.95
2022-12-18T02:01:33.817Z,31.77
2022-12-18T02:04:24.561Z,43.63
2022-12-18T02:07:25.523Z,40.80
2022-12-18T02:10:15.809Z,41.92
2022-12-18T02:13:01.870Z,41.47
2022-12-18T02:15:43.628Z,39.60
2022-12-18T02:18:16.997Z,36.78
2022-12-18T02:20:55.798Z,35.63
2022-12-18T02:23:29.363Z,43.22
2022-12-18T02:26:31.908Z,42.83
2022-12-18T02:29:18.739Z,36.38
2022-12-18T02:31:54.727Z,45.35
2022-12-18T02:34:27.470Z,44.60
2022-12-18T02:36:57.628Z,38.88
2022-12-18T02:39:30.438Z,41.33
2022-12-18T02:41:59.511Z,43.83
2022-12-18T02:44:27.286Z,39.33
2022-12-18T02:46:55.405Z,45.88
2022-12-18T02:49:37.920Z,33.20
2022-12-18T02:52:14.479Z,45.65
2022-12-18T02:54:58.790Z,36.65
2022-12-18T02:57:35.494Z,46.35
2022-12-18T03:00:09.937Z,39.53
2022-12-18T03:02:55.360Z,37.97
2022-12-18T03:05:32.503Z,39.53
2022-12-18T03:08:14.939Z,42.22
2022-12-18T03:11:02.189Z,39.10
2022-12-18T03:13:38.475Z,40.75
2022-12-18T03:16:10.330Z,36.78
2022-12-18T03:18:52.661Z,40.80
2022-12-18T03:21:24.073Z,31.73
2022-12-18T03:23:53.942Z,43.72
2022-12-18T03:26:25.693Z,41.85
2022-12-18T03:28:58.586Z,40.78
2022-12-18T03:31:32.079Z,43.67
2022-12-18T03:34:13.494Z,48.70
2022-12-18T03:36:41.466Z,41.88
2022-12-18T03:39:09.066Z,45.45
2022-12-18T03:41:49.906Z,46.70
2022-12-18T03:44:58.836Z,34.45
2022-12-18T03:48:01.593Z,42.92
2022-12-18T03:50:43.010Z,40.17
2022-12-18T03:53:47.251Z,35.22
2022-12-18T03:56:17.304Z,39.45
2022-12-18T03:58:46.718Z,41.97
2022-12-18T04:01:18.591Z,35.03
2022-12-18T04:03:49.198Z,39.28
2022-12-18T04:06:19.060Z,44.65
2022-12-18T04:08:48.228Z,38.45
2022-12-18T04:11:16.539Z,41.37
2022-12-18T04:13:44.566Z,37.28
2022-12-18T04:16:13.598Z,39.17
2022-12-18T04:18:40.918Z,41.37
2022-12-18T04:21:09.203Z,42.15
2022-12-18T04:23:37.445Z,39.67
2022-12-18T04:26:05.282Z,37.90
2022-12-18T04:28:37.003Z,32.00
2022-12-18T04:31:04.544Z,32.90
2022-12-18T04:33:31.600Z,38.25
2022-12-18T04:35:59.085Z,32.47
2022-12-18T04:38:26.756Z,39.03
2022-12-18T04:40:56.994Z,37.15
2022-12-18T04:43:24.997Z,34.13
2022-12-18T04:45:52.334Z,43.90
2022-12-18T04:48:19.398Z,34.33
2022-12-18T04:50:47.838Z,36.83
2022-12-18T04:53:15.142Z,34.70
2022-12-18T04:55:42.146Z,37.05
2022-12-18T04:58:09.158Z,36.05
2022-12-18T05:00:37.068Z,31.00
2022-12-18T05:03:04.274Z,31.73
2022-12-18T05:05:31.384Z,33.63
2022-12-18T05:07:58.763Z,38.78
2022-12-18T05:10:25.740Z,39.38
2022-12-18T05:12:59.379Z,39.38
2022-12-18T05:15:32.962Z,33.05
2022-12-18T05:18:00.568Z,42.35
2022-12-18T05:20:29.555Z,45.08
2022-12-18T05:22:57.100Z,41.72
2022-12-18T05:25:24.437Z,40.08
2022-12-18T05:27:51.747Z,42.35
2022-12-18T05:30:18.858Z,32.80
2022-12-18T05:32:45.832Z,42.95
2022-12-18T05:35:13.122Z,40.10
2022-12-18T05:37:43.167Z,38.25
2022-12-18T05:40:11.516Z,48.75
2022-12-18T05:42:38.779Z,40.63
2022-12-18T05:45:06.734Z,38.90
2022-12-18T05:47:33.811Z,40.63
2022-12-18T05:50:01.075Z,33.38
2022-12-18T05:52:28.188Z,42.22
2022-12-18T05:54:55.342Z,40.35
2022-12-18T05:57:22.627Z,39.20
2022-12-18T05:59:49.719Z,40.85
2022-12-18T06:02:16.889Z,44.40
2022-12-18T06:04:44.300Z,45.63
2022-12-18T06:07:11.381Z,45.58
2022-12-18T06:09:38.533Z,53.15
2022-12-18T06:12:06.303Z,49.53
2022-12-18T06:14:33.355Z,51.88
2022-12-18T06:17:00.410Z,43.90
2022-12-18T06:19:27.756Z,47.92
2022-12-18T06:21:54.775Z,45.92
2022-12-18T06:24:21.803Z,42.92
2022-12-18T06:26:49.097Z,37.22
2022-12-18T06:29:16.115Z,42.50
2022-12-18T06:31:43.141Z,40.42
2022-12-18T06:34:10.523Z,44.22
2022-12-18T06:36:37.541Z,43.50
2022-12-18T06:39:05.165Z,47.75
2022-12-18T06:41:33.249Z,48.65
2022-12-18T06:44:00.394Z,42.40
2022-12-18T06:46:27.946Z,37.40
2022-12-18T06:48:55.241Z,39.28
2022-12-18T06:51:24.676Z,47.10
2022-12-18T06:53:51.719Z,39.30
2022-12-18T06:56:19.057Z,46.45
2022-12-18T06:58:46.131Z,37.72
2022-12-18T07:01:14.301Z,37.10
2022-12-18T07:03:43.168Z,44.20
2022-12-18T07:06:18.999Z,40.17
2022-12-18T07:08:47.738Z,34.78
2022-12-18T07:11:15.802Z,46.25
2022-12-18T07:13:43.927Z,46.08
2022-12-18T07:16:20.898Z,43.58
2022-12-18T07:18:49.478Z,47.83
2022-12-18T07:21:19.477Z,40.95
2022-12-18T07:23:49.097Z,38.28
2022-12-18T07:26:19.512Z,41.10
2022-12-18T07:28:47.277Z,46.05
2022-12-18T07:31:20.294Z,45.85
2022-12-18T07:33:49.572Z,42.80
2022-12-18T07:36:16.709Z,33.25
2022-12-18T07:38:44.148Z,41.42
2022-12-18T07:41:13.680Z,48.03
2022-12-18T07:43:42.222Z,47.58
2022-12-18T07:46:10.346Z,45.80
2022-12-18T07:48:38.023Z,38.35
2022-12-18T07:51:07.242Z,34.40
2022-12-18T07:53:36.419Z,41.05
2022-12-18T07:56:26.514Z,38.35
2022-12-18T07:58:54.485Z,45.47
2022-12-18T08:01:22.540Z,44.58
2022-12-18T08:03:51.591Z,43.00
2022-12-18T08:06:23.380Z,40.33
2022-12-18T08:08:53.544Z,42.72
2022-12-18T08:11:20.750Z,42.00
2022-12-18T08:13:48.594Z,40.90
2022-12-18T08:16:17.866Z,51.10
2022-12-18T08:18:45.127Z,49.38
2022-12-18T08:21:14.016Z,48.85
2022-12-18T08:23:43.278Z,56.47
2022-12-18T08:26:11.577Z,57.20
2022-12-18T08:28:39.034Z,46.13
2022-12-18T08:31:07.022Z,51.63
2022-12-18T08:33:34.786Z,44.85
2022-12-18T08:36:02.830Z,40.17
2022-12-18T08:38:30.110Z,42.33
2022-12-18T08:41:01.672Z,39.83
2022-12-18T08:43:47.568Z,50.22
2022-12-18T08:46:19.826Z,44.20
2022-12-18T08:48:47.294Z,43.40
2022-12-18T08:51:17.365Z,45.40
2022-12-18T08:53:45.552Z,36.08
2022-12-18T08:56:13.565Z,41.05
2022-12-18T08:58:41.950Z,43.05
2022-12-18T09:01:11.046Z,40.67
2022-12-18T09:03:38.997Z,37.00
2022-12-18T09:06:07.625Z,45.15
2022-12-18T09:08:40.648Z,43.30
2022-12-18T09:11:15.168Z,40.22
2022-12-18T09:13:42.827Z,41.65
2022-12-18T09:16:10.722Z,43.65
2022-12-18T09:18:38.015Z,35.97
2022-12-18T09:21:13.606Z,36.15
2022-12-18T09:23:41.027Z,30.15
2022-12-18T09:26:08.627Z,37.42
2022-12-18T09:28:35.707Z,49.95
2022-12-18T09:31:08.786Z,37.05
2022-12-18T09:33:37.449Z,38.35
2022-12-18T09:36:07.686Z,40.88
2022-12-18T09:38:35.911Z,40.75
2022-12-18T09:41:18.949Z,32.35
2022-12-18T09:43:51.172Z,39.53
2022-12-18T09:46:27.813Z,34.58
2022-12-18T09:49:00.636Z,34.08
2022-12-18T09:51:32.504Z,34.08
2022-12-18T09:54:05.024Z,36.22
2022-12-18T09:56:39.865Z,28.38
2022-12-18T09:59:15.335Z,39.22
2022-12-18T10:01:44.565Z,28.67
2022-12-18T10:04:13.970Z,34.05
2022-12-18T10:06:48.286Z,36.10
2022-12-18T10:09:27.121Z,35.30
2022-12-18T10:12:34.456Z,38.25
2022-12-18T10:15:13.973Z,26.77
2022-12-18T10:17:52.710Z,36.58
2022-12-18T10:20:37.749Z,30.02
2022-12-18T10:23:31.195Z,30.17
2022-12-18T10:26:07.783Z,37.53
2022-12-18T10:28:38.931Z,33.67
2022-12-18T10:31:17.867Z,37.08
2022-12-18T10:33:45.223Z,45.08
2022-12-18T10:36:12.606Z,40.15
2022-12-18T10:38:40.591Z,42.22
2022-12-18T10:41:26.949Z,45.22
2022-12-18T10:44:21.428Z,33.55
2022-12-18T10:46:51.503Z,37.42
2022-12-18T10:49:22.270Z,32.63
2022-12-18T10:51:49.566Z,35.65
2022-12-18T10:54:16.712Z,37.67
2022-12-18T10:56:44.885Z,33.97
2022-12-18T10:59:15.981Z,32.83
2022-12-18T11:01:59.429Z,37.25
2022-12-18T11:04:36.256Z,25.65
2022-12-18T11:07:09.049Z,31.23
2022-12-18T11:09:39.137Z,34.42
2022-12-18T11:12:21.048Z,31.42
2022-12-18T11:14:58.632Z,30.55
2022-12-18T11:17:36.533Z,28.90
2022-12-18T11:20:11.042Z,29.23
2022-12-18T11:22:39.331Z,28.02
2022-12-18T11:28:05.924Z,38.50
2022-12-18T11:30:35.550Z,28.08
2022-12-18T11:33:15.762Z,28.70
2022-12-18T11:35:53.019Z,25.92
2022-12-18T11:38:36.760Z,36.20
2022-12-18T11:41:50.654Z,33.45
2022-12-18T11:44:29.543Z,30.02
2022-12-18T11:47:02.768Z,29.45
2022-12-18T11:49:38.032Z,26.67
2022-12-18T11:52:25.273Z,32.63
2022-12-18T11:54:54.732Z,31.67
2022-12-18T11:58:00.629Z,36.60
2022-12-18T12:00:28.170Z,25.88
2022-12-18T12:03:19.762Z,27.50
2022-12-18T12:06:30.814Z,26.52
2022-12-18T12:09:25.567Z,27.60
2022-12-18T12:11:55.327Z,29.33
2022-12-18T12:14:28.362Z,29.15
2022-12-18T12:17:20.212Z,30.45
2022-12-18T12:19:56.376Z,29.50
2022-12-18T12:22:48.539Z,27.23
2022-12-18T12:25:53.566Z,34.28
2022-12-18T12:28:53.610Z,30.98
2022-12-18T12:31:57.338Z,29.40
2022-12-18T12:34:40.462Z,30.90
2022-12-18T12:37:10.808Z,28.33
2022-12-18T12:39:41.727Z,24.48
2022-12-18T12:42:59.244Z,27.87
2022-12-18T12:45:54.088Z,29.33
2022-12-18T12:48:44.565Z,28.15
2022-12-18T12:51:24.899Z,25.80
2022-12-18T12:53:54.412Z,32.67
2022-12-18T12:56:22.445Z,28.02
2022-12-18T12:59:20.387Z,32.17
2022-12-18T13:02:06.219Z,31.02
2022-12-18T13:04:39.873Z,82.32
2022-12-18T13:07:37.538Z,28.45
2022-12-18T13:10:19.182Z,26.75
2022-12-18T13:12:59.875Z,32.08
2022-12-18T13:15:46.302Z,30.95
2022-12-18T13:18:17.891Z,25.15
2022-12-18T13:23:39.918Z,29.27
2022-12-18T13:26:09.017Z,34.30
2022-12-18T13:28:48.529Z,43.17
2022-12-18T13:31:36.635Z,34.50
2022-12-18T13:34:28.322Z,29.85
2022-12-18T13:37:18.010Z,30.27
2022-12-18T13:39:45.547Z,31.83
2022-12-18T13:42:32.920Z,32.00
2022-12-18T13:45:00.703Z,31.42
2022-12-18T13:47:38.422Z,33.88
2022-12-18T13:50:33.943Z,35.15
2022-12-18T13:53:06.022Z,35.45
2022-12-18T13:55:33.465Z,46.58
2022-12-18T13:58:08.059Z,37.00
2022-12-18T14:00:35.650Z,33.40
2022-12-18T14:03:03.151Z,29.85
2022-12-18T14:05:37.275Z,39.22
2022-12-18T14:08:09.943Z,28.23
2022-12-18T14:10:49.441Z,45.30
2022-12-18T14:13:33.260Z,44.53
2022-12-18T14:16:02.655Z,48.03
2022-12-18T14:18:39.878Z,38.95
2022-12-18T14:21:17.832Z,38.95
2022-12-18T14:23:46.021Z,41.72
2022-12-18T14:26:30.109Z,37.72
2022-12-18T14:29:19.781Z,48.97
2022-12-18T14:32:09.368Z,42.38
2022-12-18T14:34:39.570Z,40.50
2022-12-18T14:37:10.486Z,37.50
2022-12-18T14:39:37.591Z,54.78
2022-12-18T14:42:05.099Z,49.40
2022-12-18T14:44:44.294Z,61.72
2022-12-18T14:47:19.013Z,63.53
2022-12-18T14:49:46.144Z,59.00
2022-12-18T14:52:28.538Z,57.58
2022-12-18T14:54:55.899Z,49.38
2022-12-18T14:57:37.270Z,54.00
2022-12-18T15:00:07.204Z,45.83
2022-12-18T15:02:37.421Z,58.45
2022-12-18T15:05:17.764Z,49.83
2022-12-18T15:07:53.128Z,57.22
2022-12-18T15:10:23.461Z,54.78
2022-12-18T15:13:08.055Z,46.17
2022-12-18T15:15:36.955Z,55.20
2022-12-18T15:18:08.823Z,52.35
2022-12-18T15:20:51.447Z,67.45
2022-12-18T15:23:19.850Z,68.97
2022-12-18T15:25:49.122Z,61.40
2022-12-18T15:28:44.197Z,53.10
2022-12-18T15:31:14.096Z,80.22
2022-12-18T15:33:54.365Z,84.57
2022-12-18T15:36:26.691Z,90.25
2022-12-18T15:39:05.032Z,94.80
2022-12-18T15:41:36.064Z,90.70
2022-12-18T15:44:21.034Z,87.15
2022-12-18T15:46:48.328Z,90.72
2022-12-18T15:49:15.346Z,98.30
2022-12-18T15:51:42.539Z,90.70
2022-12-18T15:54:15.024Z,86.32
2022-12-18T15:57:00.513Z,92.07
2022-12-18T15:59:28.149Z,96.95
2022-12-18T16:01:55.347Z,90.32
2022-12-18T16:04:24.505Z,91.95
2022-12-18T16:07:14.746Z,85.18
2022-12-18T16:09:40.299Z,83.87
2022-12-18T16:12:15.102Z,96.37
2022-12-18T16:14:42.471Z,77.28
2022-12-18T16:17:15.165Z,81.53
2022-12-18T16:19:45.718Z,86.18
2022-12-18T16:22:22.299Z,81.05
2022-12-18T16:24:50.155Z,77.90
2022-12-18T16:27:17.533Z,81.60
2022-12-18T16:29:44.723Z,78.55
2022-12-18T16:32:17.913Z,86.63
2022-12-18T16:34:45.627Z,80.03
2022-12-18T16:37:14.478Z,83.15
2022-12-18T16:39:42.204Z,88.30
2022-12-18T16:42:20.825Z,84.82
2022-12-18T16:44:50.103Z,81.80
2022-12-18T16:47:17.979Z,85.10
2022-12-18T16:49:46.002Z,91.18
2022-12-18T16:52:14.442Z,89.25
2022-12-18T16:54:41.805Z,101.45
2022-12-18T16:57:13.039Z,99.72
2022-12-18T16:59:40.352Z,104.63
2022-12-18T17:02:14.977Z,100.05
2022-12-18T17:04:43.104Z,89.47
2022-12-18T17:07:10.979Z,78.55
2022-12-18T17:09:38.716Z,79.85
2022-12-18T17:12:06.576Z,83.90
2022-12-18T17:14:34.489Z,94.93
2022-12-18T17:17:24.330Z,89.00
2022-12-18T17:19:48.896Z,89.30
2022-12-18T17:22:16.042Z,77.93
2022-12-18T17:24:43.044Z,88.10
2022-12-18T17:27:10.305Z,81.30
2022-12-18T17:29:40.160Z,89.37
2022-12-18T17:32:12.598Z,99.78
2022-12-18T17:34:41.082Z,84.53
2022-12-18T17:37:08.493Z,90.72
2022-12-18T17:39:35.905Z,91.68
2022-12-18T17:42:03.081Z,91.75
2022-12-18T17:44:30.114Z,84.15
2022-12-18T17:46:57.449Z,99.55
2022-12-18T17:49:24.486Z,84.70
2022-12-18T17:51:51.635Z,102.03
2022-12-18T17:54:18.960Z,101.72
2022-12-18T17:56:46.262Z,90.72
2022-12-18T17:59:13.397Z,102.38
2022-12-18T18:01:44.600Z,100.50
2022-12-18T18:04:13.697Z,92.95
2022-12-18T18:06:41.196Z,85.72
2022-12-18T18:09:16.697Z,94.90
2022-12-18T18:12:04.115Z,91.72
2022-12-18T18:14:31.818Z,95.57
2022-12-18T18:17:04.442Z,102.38
2022-12-18T18:19:33.163Z,105.45
2022-12-18T18:22:01.589Z,115.00
2022-12-18T18:24:30.397Z,114.12
2022-12-18T18:26:59.608Z,102.97
2022-12-18T18:29:30.516Z,105.85
2022-12-18T18:31:58.133Z,109.68
2022-12-18T18:34:28.332Z,97.55
2022-12-18T18:36:58.426Z,101.18
2022-12-18T18:39:25.869Z,108.78
2022-12-18T18:41:56.315Z,104.63
2022-12-18T18:44:25.584Z,101.43
2022-12-18T18:46:57.014Z,109.70
2022-12-18T18:49:27.690Z,120.03
2022-12-18T18:51:56.722Z,101.22
2022-12-18T18:54:24.917Z,116.50
2022-12-18T18:59:40.430Z,135.68
2022-12-18T19:02:15.271Z,129.20
2022-12-18T19:04:45.717Z,125.78
2022-12-18T19:07:20.321Z,120.60
2022-12-18T19:10:02.090Z,114.68
2022-12-18T19:12:52.472Z,117.68
2022-12-18T19:15:19.597Z,111.65
2022-12-18T19:17:47.877Z,114.03
2022-12-18T19:20:15.705Z,116.32
2022-12-18T19:22:42.683Z,110.53
2022-12-18T19:25:10.687Z,107.07
2022-12-18T19:27:40.064Z,112.57
2022-12-18T19:30:07.857Z,107.32
2022-12-18T19:32:36.019Z,108.28
2022-12-18T19:35:03.271Z,107.75
2022-12-18T19:37:31.256Z,121.57
2022-12-18T19:39:58.689Z,135.32
2022-12-18T19:42:34.832Z,131.87
2022-12-18T19:45:06.304Z,130.90
2022-12-18T19:47:33.407Z,107.65
2022-12-18T19:50:01.008Z,119.97
2022-12-18T19:52:28.485Z,129.52
2022-12-18T19:54:58.136Z,122.25
2022-12-18T19:57:25.176Z,115.82
2022-12-18T19:59:52.570Z,131.15
2022-12-18T20:02:21.125Z,120.45
2022-12-18T20:04:49.722Z,119.72
2022-12-18T20:07:16.679Z,107.68
2022-12-18T20:09:44.433Z,113.68
2022-12-18T20:12:11.886Z,106.80
2022-12-18T20:14:39.074Z,98.70
2022-12-18T20:17:06.503Z,94.62
2022-12-18T20:19:34.443Z,97.22
2022-12-18T20:22:02.005Z,90.38
2022-12-18T20:24:29.114Z,83.80
2022-12-18T20:26:56.653Z,87.57
2022-12-18T20:29:23.658Z,84.40
2022-12-18T20:31:50.787Z,81.22
2022-12-18T20:34:18.854Z,68.72
2022-12-18T20:36:46.439Z,92.25
2022-12-18T20:39:14.392Z,76.50
2022-12-18T20:41:44.172Z,84.87
2022-12-18T20:44:23.056Z,81.28
2022-12-18T20:46:57.001Z,84.32
2022-12-18T20:49:26.382Z,89.10
2022-12-18T20:51:56.149Z,86.30
2022-12-18T20:54:25.054Z,84.82
2022-12-18T20:56:52.496Z,88.28
2022-12-18T20:59:20.454Z,87.40
2022-12-18T21:01:48.738Z,94.18
2022-12-18T21:04:18.519Z,102.10
2022-12-18T21:06:53.300Z,109.32
2022-12-18T21:09:23.831Z,100.78
2022-12-18T21:12:11.147Z,118.45
2022-12-18T21:14:42.187Z,84.70
2022-12-18T21:17:10.149Z,103.95
2022-12-18T21:19:37.479Z,128.77
2022-12-18T21:22:04.743Z,112.65
2022-12-18T21:24:33.017Z,105.97
2022-12-18T21:27:00.383Z,99.62
2022-12-18T21:29:27.756Z,86.75
2022-12-18T21:31:55.426Z,88.65
2022-12-18T21:34:28.099Z,90.12
2022-12-18T21:36:57.681Z,87.90
2022-12-18T21:39:27.482Z,93.05
2022-12-18T21:42:14.330Z,94.60
2022-12-18T21:44:42.586Z,82.10
2022-12-18T21:47:17.692Z,85.20
2022-12-18T21:49:53.651Z,82.35
2022-12-18T21:52:31.533Z,85.40
2022-12-18T21:55:08.862Z,75.10
2022-12-18T21:57:38.684Z,79.87
2022-12-18T22:00:07.744Z,75.60
2022-12-18T22:02:39.516Z,86.35
2022-12-18T22:05:07.630Z,76.95
2022-12-18T22:07:34.782Z,76.72
2022-12-18T22:10:02.291Z,92.37
2022-12-18T22:12:35.944Z,76.28
2022-12-18T22:15:13.120Z,72.03
2022-12-18T22:17:51.216Z,76.43
2022-12-18T22:20:24.000Z,63.30
2022-12-18T22:22:52.514Z,74.05
2022-12-18T22:25:19.537Z,74.95
2022-12-18T22:28:06.514Z,76.47
2022-12-18T22:30:34.156Z,69.10
2022-12-18T22:33:01.748Z,74.70
2022-12-18T22:35:28.749Z,85.03
2022-12-18T22:37:59.047Z,75.72
2022-12-18T22:40:26.881Z,66.85
2022-12-18T22:42:54.728Z,67.82
2022-12-18T22:45:26.917Z,71.12
2022-12-18T22:47:54.318Z,75.90
2022-12-18T22:50:21.675Z,64.60
2022-12-18T22:52:48.680Z,80.35
2022-12-18T22:55:15.842Z,83.22
2022-12-18T22:57:48.504Z,69.97
2022-12-18T23:00:24.601Z,65.57
2022-12-18T23:02:59.361Z,62.22
2022-12-18T23:05:29.542Z,72.78
2022-12-18T23:07:57.087Z,65.15
2022-12-18T23:10:24.532Z,66.68
2022-12-18T23:12:51.630Z,74.68
2022-12-18T23:15:19.112Z,63.38
2022-12-18T23:17:52.076Z,77.40
2022-12-18T23:20:19.466Z,64.93
2022-12-18T23:22:46.452Z,72.50
2022-12-18T23:25:13.523Z,75.43
2022-12-18T23:27:40.805Z,74.18
2022-12-18T23:30:08.343Z,75.18
2022-12-18T23:32:37.545Z,68.78
2022-12-18T23:35:05.400Z,82.60
2022-12-18T23:37:57.373Z,69.28
2022-12-18T23:40:21.639Z,67.12
2022-12-18T23:42:48.701Z,64.35
2022-12-18T23:45:17.644Z,77.30
2022-12-18T23:47:46.283Z,72.60
2022-12-18T23:50:17.568Z,73.05
2022-12-18T23:52:44.636Z,80.10
2022-12-18T23:55:12.006Z,65.87
2022-12-18T23:57:39.093Z,74.50
